createdAt,value
2019-03-03T00:02:23.594Z,10.03
2019-03-03T00:04:54.362Z,10.67
2019-03-03T00:07:25.407Z,11.07
2019-03-03T00:09:56.195Z,10.45
2019-03-03T00:12:26.959Z,9.50
2019-03-03T00:14:58.863Z,9.10
2019-03-03T00:17:29.691Z,10.05
2019-03-03T00:20:00.464Z,10.90
2019-03-03T00:22:31.211Z,9.17
2019-03-03T00:25:02.276Z,8.50
2019-03-03T00:27:33.040Z,9.48
2019-03-03T00:30:07.605Z,9.93
2019-03-03T00:32:38.382Z,9.33
2019-03-03T00:35:09.249Z,8.20
2019-03-03T00:37:51.023Z,8.60
2019-03-03T00:40:39.097Z,8.28
2019-03-03T00:43:14.352Z,7.90
2019-03-03T00:46:05.659Z,8.23
2019-03-03T00:48:55.143Z,9.20
2019-03-03T00:51:30.736Z,8.48
2019-03-03T00:54:18.789Z,8.95
2019-03-03T00:57:00.265Z,8.40
2019-03-03T00:59:35.891Z,8.83
2019-03-03T01:02:17.726Z,8.38
2019-03-03T01:04:53.522Z,9.95
2019-03-03T01:07:31.986Z,7.97
2019-03-03T01:10:09.526Z,8.60
2019-03-03T01:12:42.197Z,9.45
2019-03-03T01:15:20.763Z,8.38
2019-03-03T01:17:55.946Z,7.62
2019-03-03T01:20:34.503Z,7.97
2019-03-03T01:23:09.959Z,7.70
2019-03-03T01:25:40.737Z,7.75
2019-03-03T01:28:11.493Z,8.33
2019-03-03T01:30:42.364Z,7.67
2019-03-03T01:33:13.123Z,7.50
2019-03-03T01:35:43.885Z,7.73
2019-03-03T01:38:14.641Z,8.00
2019-03-03T01:40:45.413Z,7.33
2019-03-03T01:43:16.170Z,8.00
2019-03-03T01:45:46.939Z,7.13
2019-03-03T01:48:17.713Z,8.60
2019-03-03T01:50:48.467Z,8.07
2019-03-03T01:53:19.223Z,7.30
2019-03-03T01:55:49.986Z,6.30
2019-03-03T01:58:20.737Z,7.07
2019-03-03T02:00:51.802Z,6.83
2019-03-03T02:03:22.873Z,7.28
2019-03-03T02:05:53.641Z,6.83
2019-03-03T02:08:24.412Z,7.10
2019-03-03T02:10:55.194Z,5.73
2019-03-03T02:13:26.058Z,6.30
2019-03-03T02:15:56.826Z,6.20
2019-03-03T02:18:27.697Z,6.43
2019-03-03T02:20:58.450Z,6.23
2019-03-03T02:23:29.311Z,5.47
2019-03-03T02:26:00.079Z,6.00
2019-03-03T02:28:30.939Z,5.50
2019-03-03T02:31:01.705Z,6.73
2019-03-03T02:33:32.463Z,6.97
2019-03-03T02:36:03.232Z,5.23
2019-03-03T02:38:33.987Z,6.13
2019-03-03T02:41:04.755Z,6.23
2019-03-03T02:43:38.313Z,6.23
2019-03-03T02:46:09.101Z,6.00
2019-03-03T02:48:39.847Z,5.87
2019-03-03T02:51:10.613Z,5.57
2019-03-03T02:53:41.369Z,5.50
2019-03-03T02:56:12.146Z,6.47
2019-03-03T02:58:42.895Z,5.47
2019-03-03T03:01:18.602Z,5.33
2019-03-03T03:03:49.375Z,5.03
2019-03-03T03:06:24.903Z,5.30
2019-03-03T03:09:00.428Z,6.67
2019-03-03T03:11:36.130Z,6.15
2019-03-03T03:14:17.896Z,5.45
2019-03-03T03:16:56.248Z,5.60
2019-03-03T03:19:37.804Z,4.92
2019-03-03T03:22:10.486Z,5.78
2019-03-03T03:25:01.057Z,5.28
2019-03-03T03:27:36.254Z,5.30
2019-03-03T03:30:15.388Z,5.87
2019-03-03T03:32:50.861Z,4.75
2019-03-03T03:35:35.608Z,4.35
2019-03-03T03:38:08.288Z,4.70
2019-03-03T03:40:50.266Z,4.85
2019-03-03T03:43:31.756Z,5.15
2019-03-03T03:46:07.270Z,4.87
2019-03-03T03:48:42.477Z,4.62
2019-03-03T03:51:23.780Z,4.50
2019-03-03T03:53:59.465Z,5.15
2019-03-03T03:56:32.250Z,4.35
2019-03-03T03:59:04.923Z,4.35
2019-03-03T04:01:37.591Z,4.90
2019-03-03T04:04:13.168Z,4.17
2019-03-03T04:06:45.841Z,4.05
2019-03-03T04:09:21.295Z,4.45
2019-03-03T04:12:10.648Z,4.33
2019-03-03T04:14:55.113Z,4.30
2019-03-03T04:17:27.788Z,4.75
2019-03-03T04:20:03.246Z,4.40
2019-03-03T04:22:35.914Z,3.72
2019-03-03T04:25:08.591Z,3.52
2019-03-03T04:27:44.355Z,4.28
2019-03-03T04:30:28.700Z,3.50
2019-03-03T04:33:04.146Z,4.15
2019-03-03T04:35:39.811Z,3.67
2019-03-03T04:38:15.255Z,3.65
2019-03-03T04:41:04.313Z,3.27
2019-03-03T04:43:37.011Z,3.17
2019-03-03T04:46:21.710Z,3.72
2019-03-03T04:48:54.391Z,3.25
2019-03-03T04:51:32.607Z,3.25
2019-03-03T04:54:17.600Z,2.80
2019-03-03T04:56:56.368Z,2.90
2019-03-03T04:59:34.868Z,3.20
2019-03-03T05:02:07.537Z,3.00
2019-03-03T05:04:40.222Z,3.17
2019-03-03T05:07:12.886Z,3.20
2019-03-03T05:09:48.110Z,2.60
2019-03-03T05:12:26.688Z,2.90
2019-03-03T05:15:05.396Z,2.55
2019-03-03T05:17:46.927Z,2.70
2019-03-03T05:20:18.237Z,3.10
2019-03-03T05:22:49.018Z,2.65
2019-03-03T05:25:19.790Z,2.50
2019-03-03T05:27:50.549Z,2.80
2019-03-03T05:30:21.313Z,2.80
2019-03-03T05:32:52.073Z,3.50
2019-03-03T05:35:22.837Z,3.07
2019-03-03T05:37:53.596Z,2.70
2019-03-03T05:40:24.362Z,2.87
2019-03-03T05:42:55.118Z,2.93
2019-03-03T05:45:25.889Z,3.13
2019-03-03T05:47:56.653Z,3.10
2019-03-03T05:50:27.409Z,2.70
2019-03-03T05:52:58.168Z,3.03
2019-03-03T05:55:28.931Z,3.57
2019-03-03T05:57:59.688Z,2.77
2019-03-03T06:00:30.703Z,3.20
2019-03-03T06:03:01.470Z,3.60
2019-03-03T06:05:32.239Z,3.97
2019-03-03T06:08:02.999Z,3.33
2019-03-03T06:10:33.774Z,3.30
2019-03-03T06:13:04.534Z,4.03
2019-03-03T06:15:35.315Z,3.57
2019-03-03T06:18:06.069Z,3.37
2019-03-03T06:20:36.834Z,3.13
2019-03-03T06:23:07.596Z,3.20
2019-03-03T06:25:38.360Z,3.50
2019-03-03T06:28:09.121Z,3.40
2019-03-03T06:30:39.894Z,2.90
2019-03-03T06:33:10.649Z,3.23
2019-03-03T06:35:41.420Z,3.80
2019-03-03T06:38:12.184Z,3.50
2019-03-03T06:40:43.451Z,3.07
2019-03-03T06:43:14.218Z,3.15
2019-03-03T06:45:44.983Z,4.00
2019-03-03T06:48:15.737Z,3.40
2019-03-03T06:50:46.520Z,3.23
2019-03-03T06:53:17.273Z,3.37
2019-03-03T06:55:48.041Z,3.40
2019-03-03T06:58:18.799Z,3.73
2019-03-03T07:00:49.571Z,3.40
2019-03-03T07:03:20.334Z,3.47
2019-03-03T07:05:51.098Z,3.10
2019-03-03T07:08:21.866Z,3.93
2019-03-03T07:10:52.643Z,3.20
2019-03-03T07:13:23.409Z,3.07
2019-03-03T07:15:54.166Z,3.20
2019-03-03T07:18:24.923Z,4.47
2019-03-03T07:20:55.685Z,3.33
2019-03-03T07:23:26.442Z,3.70
2019-03-03T07:25:57.207Z,3.23
2019-03-03T07:28:27.974Z,3.33
2019-03-03T07:30:58.741Z,3.43
2019-03-03T07:33:31.129Z,3.73
2019-03-03T07:36:01.905Z,3.85
2019-03-03T07:38:32.662Z,3.43
2019-03-03T07:41:03.752Z,3.60
2019-03-03T07:43:34.509Z,3.87
2019-03-03T07:46:05.277Z,3.77
2019-03-03T07:48:36.045Z,3.50
2019-03-03T07:51:06.810Z,3.70
2019-03-03T07:53:37.569Z,3.30
2019-03-03T07:56:08.367Z,3.97
2019-03-03T07:58:39.122Z,3.53
2019-03-03T08:01:09.891Z,4.13
2019-03-03T08:03:40.654Z,4.03
2019-03-03T08:06:11.417Z,3.90
2019-03-03T08:08:42.174Z,4.17
2019-03-03T08:11:12.951Z,3.50
2019-03-03T08:13:43.822Z,3.17
2019-03-03T08:16:14.590Z,3.60
2019-03-03T08:18:45.379Z,3.17
2019-03-03T08:21:16.142Z,3.40
2019-03-03T08:23:46.913Z,3.83
2019-03-03T08:26:17.684Z,3.73
2019-03-03T08:28:48.467Z,4.03
2019-03-03T08:31:19.246Z,3.93
2019-03-03T08:33:50.009Z,2.90
2019-03-03T08:36:20.767Z,3.63
2019-03-03T08:38:51.536Z,3.10
2019-03-03T08:41:22.316Z,2.93
2019-03-03T08:43:57.811Z,3.87
2019-03-03T08:46:39.161Z,3.50
2019-03-03T08:49:14.343Z,3.67
2019-03-03T08:51:47.039Z,2.97
2019-03-03T08:54:36.595Z,3.20
2019-03-03T08:57:09.275Z,2.90
2019-03-03T08:59:50.938Z,3.33
2019-03-03T09:02:23.615Z,2.87
2019-03-03T09:04:56.279Z,3.60
2019-03-03T09:07:40.743Z,2.67
2019-03-03T09:10:13.414Z,3.00
2019-03-03T09:12:46.097Z,2.80
2019-03-03T09:15:35.683Z,2.90
2019-03-03T09:18:10.862Z,3.37
2019-03-03T09:20:43.532Z,2.43
2019-03-03T09:23:16.212Z,3.07
2019-03-03T09:25:54.883Z,3.43
2019-03-03T09:28:30.578Z,2.90
2019-03-03T09:31:14.935Z,2.60
2019-03-03T09:33:49.474Z,3.20
2019-03-03T09:36:22.291Z,3.07
2019-03-03T09:39:11.452Z,2.70
2019-03-03T09:41:46.879Z,2.60
2019-03-03T09:44:22.652Z,2.27
2019-03-03T09:46:55.342Z,2.67
2019-03-03T09:49:28.021Z,2.90
2019-03-03T09:52:17.392Z,2.30
2019-03-03T09:54:50.507Z,2.97
2019-03-03T09:57:29.367Z,3.13
2019-03-03T10:00:07.898Z,2.60
2019-03-03T10:02:57.514Z,2.50
2019-03-03T10:05:33.213Z,2.70
2019-03-03T10:08:11.684Z,2.50
2019-03-03T10:10:49.894Z,3.00
2019-03-03T10:13:22.571Z,2.60
2019-03-03T10:16:07.058Z,2.70
2019-03-03T10:18:42.723Z,2.20
2019-03-03T10:21:21.444Z,2.57
2019-03-03T10:23:54.117Z,2.80
2019-03-03T10:26:36.171Z,3.00
2019-03-03T10:29:08.849Z,3.23
2019-03-03T10:31:44.502Z,2.70
2019-03-03T10:34:19.927Z,2.33
2019-03-03T10:37:04.929Z,2.80
2019-03-03T10:39:40.106Z,2.33
2019-03-03T10:42:12.874Z,2.87
2019-03-03T10:45:02.497Z,2.87
2019-03-03T10:47:51.946Z,2.70
2019-03-03T10:50:27.297Z,3.20
2019-03-03T10:53:03.105Z,2.50
2019-03-03T10:55:38.344Z,2.30
2019-03-03T10:58:13.765Z,3.07
2019-03-03T11:00:52.091Z,2.80
2019-03-03T11:03:24.755Z,2.43
2019-03-03T11:06:14.106Z,2.90
2019-03-03T11:09:03.487Z,2.70
2019-03-03T11:11:36.157Z,2.30
2019-03-03T11:14:21.344Z,2.70
2019-03-03T11:17:03.117Z,2.50
2019-03-03T11:19:44.882Z,2.57
2019-03-03T11:22:26.644Z,2.60
2019-03-03T11:25:16.142Z,2.80
2019-03-03T11:27:54.606Z,2.17
2019-03-03T11:30:30.330Z,3.00
2019-03-03T11:33:19.658Z,2.23
2019-03-03T11:35:58.387Z,2.30
2019-03-03T11:38:31.053Z,2.60
2019-03-03T11:41:03.733Z,2.33
2019-03-03T11:43:42.036Z,2.20
2019-03-03T11:46:14.718Z,2.20
2019-03-03T11:48:50.164Z,2.03
2019-03-03T11:51:22.879Z,2.07
2019-03-03T11:54:13.954Z,3.10
2019-03-03T11:56:52.799Z,2.50
2019-03-03T11:59:37.551Z,2.27
2019-03-03T12:02:28.447Z,2.07
2019-03-03T12:05:03.935Z,2.27
2019-03-03T12:07:39.358Z,1.90
2019-03-03T12:10:28.766Z,2.40
2019-03-03T12:13:19.378Z,2.40
2019-03-03T12:15:52.044Z,2.10
2019-03-03T12:18:36.579Z,2.00
2019-03-03T12:21:24.070Z,1.83
2019-03-03T12:24:02.705Z,1.90
2019-03-03T12:26:38.133Z,2.23
2019-03-03T12:29:13.591Z,2.13
2019-03-03T12:31:55.438Z,1.80
2019-03-03T12:34:40.044Z,2.13
2019-03-03T12:37:16.235Z,2.40
2019-03-03T12:39:48.907Z,2.00
2019-03-03T12:42:24.626Z,2.60
2019-03-03T12:44:57.289Z,2.87
2019-03-03T12:47:46.891Z,2.50
2019-03-03T12:50:36.418Z,2.23
2019-03-03T12:53:14.618Z,2.40
2019-03-03T12:55:53.402Z,2.83
2019-03-03T12:58:26.074Z,2.43
2019-03-03T13:01:01.764Z,1.83
2019-03-03T13:03:50.906Z,2.40
2019-03-03T13:06:30.440Z,2.57
2019-03-03T13:09:06.361Z,2.77
2019-03-03T13:11:39.091Z,3.10
2019-03-03T13:14:11.779Z,2.40
2019-03-03T13:17:00.926Z,2.80
2019-03-03T13:19:33.674Z,2.80
2019-03-03T13:22:18.146Z,2.60
2019-03-03T13:24:57.197Z,2.60
2019-03-03T13:27:29.885Z,2.90
2019-03-03T13:30:17.722Z,3.27
2019-03-03T13:32:53.421Z,2.37
2019-03-03T13:35:26.193Z,2.50
2019-03-03T13:38:10.935Z,3.00
2019-03-03T13:40:56.027Z,3.00
2019-03-03T13:43:26.797Z,2.93
2019-03-03T13:45:57.565Z,2.77
2019-03-03T13:48:28.611Z,2.90
2019-03-03T13:51:00.063Z,3.13
2019-03-03T13:53:30.840Z,2.93
2019-03-03T13:56:01.614Z,3.13
2019-03-03T13:58:32.391Z,2.80
2019-03-03T14:01:03.352Z,3.00
2019-03-03T14:03:34.127Z,3.60
2019-03-03T14:06:04.882Z,3.47
2019-03-03T14:08:35.651Z,3.47
2019-03-03T14:11:06.417Z,2.63
2019-03-03T14:13:37.185Z,2.83
2019-03-03T14:16:07.970Z,2.97
2019-03-03T14:18:39.050Z,2.60
2019-03-03T14:21:09.808Z,2.73
2019-03-03T14:23:40.592Z,2.50
2019-03-03T14:26:11.349Z,2.40
2019-03-03T14:28:42.168Z,2.87
2019-03-03T14:31:13.667Z,2.60
2019-03-03T14:33:44.469Z,2.97
2019-03-03T14:36:15.227Z,2.90
2019-03-03T14:38:45.995Z,2.83
2019-03-03T14:41:16.794Z,2.53
2019-03-03T14:43:47.553Z,2.90
2019-03-03T14:46:18.332Z,2.23
2019-03-03T14:48:49.133Z,2.67
2019-03-03T14:51:19.860Z,2.60
2019-03-03T14:53:50.725Z,2.70
2019-03-03T14:56:21.504Z,2.70
2019-03-03T14:58:52.264Z,3.33
2019-03-03T15:01:23.029Z,2.87
2019-03-03T15:03:53.789Z,2.20
2019-03-03T15:06:24.889Z,3.10
2019-03-03T15:08:55.626Z,2.60
2019-03-03T15:11:26.400Z,2.97
2019-03-03T15:13:57.158Z,2.33
2019-03-03T15:16:27.958Z,3.10
2019-03-03T15:18:58.724Z,2.00
2019-03-03T15:21:29.491Z,3.07
2019-03-03T15:24:00.271Z,2.50
2019-03-03T15:26:31.085Z,2.67
2019-03-03T15:29:03.343Z,2.77
2019-03-03T15:31:37.743Z,3.80
2019-03-03T15:34:06.929Z,2.77
2019-03-03T15:36:37.689Z,3.00
2019-03-03T15:39:08.455Z,2.97
2019-03-03T15:41:39.219Z,2.93
2019-03-03T15:44:10.003Z,3.10
2019-03-03T15:46:40.771Z,2.97
2019-03-03T15:49:11.527Z,2.60
2019-03-03T15:51:42.306Z,2.40
2019-03-03T15:54:13.090Z,2.37
2019-03-03T15:56:43.869Z,2.30
2019-03-03T15:59:14.626Z,2.53
2019-03-03T16:01:45.404Z,2.63
2019-03-03T16:04:16.161Z,2.57
2019-03-03T16:06:47.042Z,2.77
2019-03-03T16:09:17.839Z,2.30
2019-03-03T16:11:48.616Z,3.13
2019-03-03T16:14:19.376Z,2.50
2019-03-03T16:16:50.145Z,2.17
2019-03-03T16:19:20.904Z,2.20
2019-03-03T16:21:51.681Z,3.77
2019-03-03T16:24:22.443Z,3.00
2019-03-03T16:26:53.269Z,2.33
2019-03-03T16:29:24.028Z,2.83
2019-03-03T16:31:54.801Z,2.40
2019-03-03T16:34:25.570Z,2.77
2019-03-03T16:36:56.334Z,2.77
2019-03-03T16:39:27.097Z,2.60
2019-03-03T16:41:57.866Z,2.20
2019-03-03T16:44:28.623Z,2.50
2019-03-03T16:46:59.397Z,2.50
2019-03-03T16:49:30.148Z,2.03
2019-03-03T16:52:00.979Z,2.50
2019-03-03T16:54:31.686Z,2.57
2019-03-03T16:57:02.475Z,2.50
2019-03-03T16:59:33.231Z,3.00
2019-03-03T17:02:04.370Z,2.93
2019-03-03T17:04:35.135Z,3.50
2019-03-03T17:07:05.894Z,4.43
2019-03-03T17:09:36.677Z,5.10
2019-03-03T17:12:07.434Z,5.60
2019-03-03T17:14:38.221Z,4.10
2019-03-03T17:17:08.978Z,3.43
2019-03-03T17:19:39.740Z,2.83
2019-03-03T17:22:10.500Z,4.43
2019-03-03T17:24:41.267Z,2.60
2019-03-03T17:27:12.032Z,3.13
2019-03-03T17:29:42.801Z,2.67
2019-03-03T17:32:13.588Z,2.40
2019-03-03T17:34:44.402Z,2.90
2019-03-03T17:37:15.165Z,3.10
2019-03-03T17:39:45.936Z,3.00
2019-03-03T17:42:16.695Z,3.90
2019-03-03T17:44:47.469Z,7.10
2019-03-03T17:47:18.226Z,7.60
2019-03-03T17:49:48.989Z,5.10
2019-03-03T17:52:19.768Z,3.77
2019-03-03T17:54:50.540Z,3.43
2019-03-03T17:57:21.301Z,3.90
2019-03-03T17:59:52.074Z,3.87
2019-03-03T18:02:22.944Z,3.77
2019-03-03T18:04:53.719Z,3.07
2019-03-03T18:07:24.491Z,3.70
2019-03-03T18:09:55.266Z,3.07
2019-03-03T18:12:26.054Z,2.90
2019-03-03T18:14:56.818Z,3.97
2019-03-03T18:17:27.574Z,4.00
2019-03-03T18:19:58.370Z,4.30
2019-03-03T18:22:29.128Z,4.17
2019-03-03T18:24:59.897Z,4.30
2019-03-03T18:27:30.656Z,3.80
2019-03-03T18:30:02.043Z,4.23
2019-03-03T18:32:32.796Z,4.90
2019-03-03T18:35:04.163Z,5.07
2019-03-03T18:37:34.944Z,5.33
2019-03-03T18:40:10.987Z,4.43
2019-03-03T18:42:41.741Z,5.10
2019-03-03T18:45:14.812Z,5.53
2019-03-03T18:47:45.886Z,5.17
2019-03-03T18:50:19.682Z,4.70
2019-03-03T18:52:50.629Z,4.87
2019-03-03T18:55:21.403Z,5.00
2019-03-03T18:57:52.169Z,5.30
2019-03-03T19:00:25.553Z,5.67
2019-03-03T19:02:58.024Z,5.77
2019-03-03T19:05:28.977Z,4.90
2019-03-03T19:07:59.737Z,4.70
2019-03-03T19:10:35.844Z,3.80
2019-03-03T19:13:06.600Z,4.10
2019-03-03T19:15:37.365Z,3.53
2019-03-03T19:18:08.121Z,3.40
2019-03-03T19:20:38.894Z,3.33
2019-03-03T19:23:09.654Z,3.77
2019-03-03T19:25:40.422Z,5.00
2019-03-03T19:28:11.201Z,3.10
2019-03-03T19:30:41.974Z,4.03
2019-03-03T19:33:16.538Z,3.67
2019-03-03T19:35:47.316Z,3.97
2019-03-03T19:38:18.075Z,4.13
2019-03-03T19:40:48.851Z,3.87
2019-03-03T19:43:19.717Z,3.63
2019-03-03T19:45:55.922Z,3.87
2019-03-03T19:48:26.683Z,3.90
2019-03-03T19:50:57.453Z,4.07
2019-03-03T19:53:28.209Z,4.30
2019-03-03T19:55:58.976Z,4.00
2019-03-03T19:58:29.729Z,4.67
2019-03-03T20:01:00.498Z,4.20
2019-03-03T20:03:31.266Z,5.10
2019-03-03T20:06:02.141Z,5.30
2019-03-03T20:08:32.896Z,6.30
2019-03-03T20:11:03.668Z,5.80
2019-03-03T20:13:34.426Z,5.57
2019-03-03T20:16:05.294Z,5.07
2019-03-03T20:18:36.050Z,5.50
2019-03-03T20:21:06.813Z,6.60
2019-03-03T20:23:37.581Z,4.80
2019-03-03T20:26:08.360Z,4.90
2019-03-03T20:28:39.129Z,5.10
2019-03-03T20:31:09.894Z,6.03
2019-03-03T20:33:40.704Z,6.00
2019-03-03T20:36:11.547Z,5.90
2019-03-03T20:38:42.316Z,5.23
2019-03-03T20:41:13.089Z,7.10
2019-03-03T20:43:43.950Z,5.70
2019-03-03T20:46:14.720Z,5.53
2019-03-03T20:48:45.499Z,6.47
2019-03-03T20:51:16.407Z,6.63
2019-03-03T20:53:47.159Z,5.37
2019-03-03T20:56:17.927Z,5.50
2019-03-03T20:58:48.806Z,5.73
2019-03-03T21:01:19.607Z,6.03
2019-03-03T21:03:50.370Z,4.47
2019-03-03T21:06:21.159Z,6.30
2019-03-03T21:08:52.219Z,6.20
2019-03-03T21:11:23.015Z,5.70
2019-03-03T21:13:53.768Z,6.00
2019-03-03T21:16:24.540Z,6.70
2019-03-03T21:18:55.297Z,5.70
2019-03-03T21:21:26.070Z,5.60
2019-03-03T21:23:56.833Z,5.50
2019-03-03T21:26:27.613Z,5.90
2019-03-03T21:28:58.359Z,5.80
2019-03-03T21:31:29.132Z,5.90
2019-03-03T21:33:59.890Z,6.67
2019-03-03T21:36:30.658Z,5.70
2019-03-03T21:39:01.423Z,7.23
2019-03-03T21:41:32.196Z,6.73
2019-03-03T21:44:03.097Z,10.17
2019-03-03T21:46:34.162Z,9.77
2019-03-03T21:49:04.930Z,8.70
2019-03-03T21:51:35.694Z,6.57
2019-03-03T21:54:06.478Z,7.53
2019-03-03T21:56:37.239Z,7.53
2019-03-03T21:59:07.998Z,8.00
2019-03-03T22:01:38.772Z,7.60
2019-03-03T22:04:09.526Z,6.83
2019-03-03T22:06:40.330Z,6.37
2019-03-03T22:09:11.195Z,7.10
2019-03-03T22:11:41.995Z,8.20
2019-03-03T22:14:13.053Z,8.07
2019-03-03T22:16:43.858Z,7.03
2019-03-03T22:19:14.619Z,7.27
2019-03-03T22:21:45.414Z,6.93
2019-03-03T22:24:16.178Z,7.47
2019-03-03T22:26:46.938Z,7.37
2019-03-03T22:29:17.705Z,8.00
2019-03-03T22:31:48.461Z,7.37
2019-03-03T22:34:19.226Z,7.30
2019-03-03T22:36:49.997Z,7.83
2019-03-03T22:39:20.774Z,7.30
2019-03-03T22:41:51.525Z,7.00
2019-03-03T22:44:22.295Z,7.40
2019-03-03T22:46:53.067Z,7.40
2019-03-03T22:49:23.839Z,7.27
2019-03-03T22:51:54.593Z,7.23
2019-03-03T22:54:25.359Z,8.40
2019-03-03T22:56:56.447Z,7.00
2019-03-03T22:59:27.227Z,6.62
2019-03-03T23:01:57.977Z,7.70
2019-03-03T23:04:35.543Z,7.10
2019-03-03T23:07:13.257Z,7.10
2019-03-03T23:10:10.587Z,7.03
2019-03-03T23:13:06.518Z,6.45
2019-03-03T23:15:52.737Z,7.08
2019-03-03T23:18:50.027Z,7.35
2019-03-03T23:21:33.694Z,7.05
2019-03-03T23:24:23.346Z,6.70
2019-03-03T23:26:54.109Z,6.28
2019-03-03T23:29:24.879Z,6.60
2019-03-03T23:31:55.633Z,6.23
2019-03-03T23:34:26.400Z,6.60
2019-03-03T23:36:57.175Z,6.13
2019-03-03T23:39:27.947Z,6.13
2019-03-03T23:41:58.708Z,8.00
2019-03-03T23:44:29.481Z,5.67
2019-03-03T23:47:00.238Z,6.40
2019-03-03T23:49:31.010Z,6.37
2019-03-03T23:52:01.773Z,6.30
2019-03-03T23:54:32.540Z,6.23
2019-03-03T23:57:03.310Z,5.80
2019-03-03T23:59:34.076Z,5.87
